createdAt,value
2019-02-28T00:00:17.706Z,3.60
2019-02-28T00:02:46.279Z,2.90
2019-02-28T00:05:14.906Z,2.70
2019-02-28T00:07:43.503Z,3.43
2019-02-28T00:10:12.031Z,3.50
2019-02-28T00:12:40.607Z,4.20
2019-02-28T00:15:09.799Z,3.90
2019-02-28T00:17:42.585Z,5.77
2019-02-28T00:20:09.511Z,4.60
2019-02-28T00:22:38.086Z,4.47
2019-02-28T00:25:08.583Z,4.33
2019-02-28T00:27:37.165Z,4.83
2019-02-28T00:30:11.700Z,3.67
2019-02-28T00:32:40.275Z,2.83
2019-02-28T00:35:12.945Z,6.37
2019-02-28T00:37:39.494Z,4.67
2019-02-28T00:40:09.987Z,4.30
2019-02-28T00:42:38.564Z,5.20
2019-02-28T00:45:16.618Z,3.77
2019-02-28T00:47:47.544Z,8.93
2019-02-28T00:50:15.391Z,6.67
2019-02-28T00:52:43.962Z,4.27
2019-02-28T00:55:14.741Z,6.80
2019-02-28T00:57:44.045Z,6.83
2019-02-28T01:00:17.951Z,6.47
2019-02-28T01:02:51.890Z,7.13
2019-02-28T01:05:16.862Z,8.20
2019-02-28T01:07:48.108Z,8.93
2019-02-28T01:10:15.638Z,6.93
2019-02-28T01:12:44.210Z,7.93
2019-02-28T01:15:17.558Z,7.10
2019-02-28T01:17:46.367Z,9.50
2019-02-28T01:20:16.429Z,7.87
2019-02-28T01:22:45.232Z,7.27
2019-02-28T01:25:18.156Z,6.77
2019-02-28T01:27:46.866Z,6.83
2019-02-28T01:30:16.361Z,4.77
2019-02-28T01:32:49.874Z,6.37
2019-02-28T01:35:15.270Z,7.70
2019-02-28T01:37:43.924Z,7.63
2019-02-28T01:40:14.116Z,7.27
2019-02-28T01:42:42.691Z,8.13
2019-02-28T01:45:14.607Z,7.30
2019-02-28T01:47:43.187Z,6.73
2019-02-28T01:50:12.867Z,7.20
2019-02-28T01:52:45.994Z,8.60
2019-02-28T01:55:11.887Z,9.20
2019-02-28T01:57:44.064Z,7.83
2019-02-28T02:00:13.609Z,7.90
2019-02-28T02:02:42.182Z,7.17
2019-02-28T02:05:10.807Z,7.53
2019-02-28T02:07:39.386Z,6.40
2019-02-28T02:10:21.433Z,5.77
2019-02-28T02:12:51.170Z,7.57
2019-02-28T02:15:20.159Z,6.77
2019-02-28T02:17:48.739Z,8.03
2019-02-28T02:20:17.737Z,7.93
2019-02-28T02:22:46.315Z,8.80
2019-02-28T02:25:15.020Z,8.17
2019-02-28T02:27:43.582Z,7.00
2019-02-28T02:30:15.927Z,7.17
2019-02-28T02:32:45.224Z,8.07
2019-02-28T02:35:13.787Z,9.67
2019-02-28T02:37:42.413Z,10.17
2019-02-28T02:40:15.845Z,9.57
2019-02-28T02:42:48.439Z,10.10
2019-02-28T02:45:15.281Z,10.50
2019-02-28T02:47:43.803Z,10.13
2019-02-28T02:50:14.373Z,9.10
2019-02-28T02:52:43.188Z,9.10
2019-02-28T02:55:11.886Z,11.63
2019-02-28T02:57:40.455Z,11.67
2019-02-28T03:00:16.678Z,9.00
2019-02-28T03:02:45.590Z,10.07
2019-02-28T03:05:14.888Z,12.67
2019-02-28T03:07:43.533Z,11.13
2019-02-28T03:10:17.306Z,10.33
2019-02-28T03:12:44.823Z,9.27
2019-02-28T03:15:25.277Z,10.17
2019-02-28T03:17:48.747Z,11.30
2019-02-28T03:20:17.671Z,10.27
2019-02-28T03:22:46.235Z,12.97
2019-02-28T03:25:17.959Z,10.30
2019-02-28T03:27:46.533Z,9.70
2019-02-28T03:30:27.675Z,9.57
2019-02-28T03:32:49.536Z,10.27
2019-02-28T03:35:18.100Z,10.27
2019-02-28T03:37:46.674Z,12.97
2019-02-28T03:40:16.074Z,15.30
2019-02-28T03:42:44.658Z,10.70
2019-02-28T03:45:17.617Z,14.57
2019-02-28T03:47:46.201Z,12.67
2019-02-28T03:50:14.811Z,12.90
2019-02-28T03:52:44.677Z,10.10
2019-02-28T03:55:14.419Z,12.20
2019-02-28T03:57:43.169Z,15.60
2019-02-28T04:00:19.516Z,18.07
2019-02-28T04:02:48.091Z,13.00
2019-02-28T04:05:16.642Z,12.27
2019-02-28T04:07:52.912Z,14.57
2019-02-28T04:10:16.675Z,14.53
2019-02-28T04:12:47.081Z,16.90
2019-02-28T04:15:19.873Z,17.47
2019-02-28T04:17:48.543Z,13.40
2019-02-28T04:20:17.159Z,14.87
2019-02-28T04:22:45.739Z,14.43
2019-02-28T04:25:14.328Z,16.07
2019-02-28T04:27:42.902Z,14.43
2019-02-28T04:30:12.991Z,12.13
2019-02-28T04:32:41.618Z,15.37
2019-02-28T04:35:10.930Z,15.97
2019-02-28T04:37:44.874Z,13.20
2019-02-28T04:40:11.616Z,13.03
2019-02-28T04:42:40.175Z,15.47
2019-02-28T04:45:13.238Z,19.20
2019-02-28T04:47:41.935Z,16.90
2019-02-28T04:50:14.242Z,14.27
2019-02-28T04:52:47.117Z,16.27
2019-02-28T04:55:13.028Z,19.30
2019-02-28T04:57:41.585Z,18.20
2019-02-28T05:00:19.013Z,18.57
2019-02-28T05:02:47.565Z,19.13
2019-02-28T05:05:16.142Z,19.03
2019-02-28T05:07:44.698Z,20.33
2019-02-28T05:10:13.353Z,23.90
2019-02-28T05:12:41.985Z,19.97
2019-02-28T05:15:16.809Z,21.80
2019-02-28T05:17:48.091Z,27.30
2019-02-28T05:20:16.670Z,25.47
2019-02-28T05:22:45.225Z,25.80
2019-02-28T05:25:17.374Z,23.07
2019-02-28T05:27:44.015Z,23.57
2019-02-28T05:30:18.032Z,22.93
2019-02-28T05:32:44.534Z,20.97
2019-02-28T05:35:13.294Z,21.03
2019-02-28T05:37:46.697Z,21.33
2019-02-28T05:40:14.386Z,21.83
2019-02-28T05:42:42.958Z,24.40
2019-02-28T05:45:14.810Z,22.93
2019-02-28T05:47:46.147Z,26.50
2019-02-28T05:50:16.651Z,25.83
2019-02-28T05:52:43.439Z,29.93
2019-02-28T05:55:12.089Z,26.10
2019-02-28T05:57:43.442Z,26.37
2019-02-28T06:00:14.854Z,27.03
2019-02-28T06:02:43.415Z,32.30
2019-02-28T06:05:12.794Z,30.73
2019-02-28T06:07:41.454Z,29.13
2019-02-28T06:10:12.073Z,32.43
2019-02-28T06:12:43.751Z,30.40
2019-02-28T06:15:12.803Z,32.37
2019-02-28T06:17:41.430Z,35.73
2019-02-28T06:20:11.451Z,36.77
2019-02-28T06:22:40.017Z,33.13
2019-02-28T06:25:11.006Z,36.23
2019-02-28T06:27:41.943Z,35.10
2019-02-28T06:30:14.742Z,36.07
2019-02-28T06:32:43.290Z,38.40
2019-02-28T06:35:15.982Z,35.73
2019-02-28T06:37:42.218Z,24.13
2019-02-28T06:40:15.997Z,39.57
2019-02-28T06:42:46.914Z,37.17
2019-02-28T06:45:19.270Z,34.27
2019-02-28T06:47:49.646Z,33.77
2019-02-28T06:50:18.037Z,38.43
2019-02-28T06:52:46.607Z,34.20
2019-02-28T06:55:25.982Z,37.37
2019-02-28T06:57:54.542Z,38.60
2019-02-28T07:00:23.186Z,43.77
2019-02-28T07:02:51.747Z,37.77
2019-02-28T07:05:24.628Z,35.13
2019-02-28T07:07:50.602Z,41.33
2019-02-28T07:10:19.229Z,37.87
2019-02-28T07:12:47.743Z,38.57
2019-02-28T07:15:16.322Z,40.50
2019-02-28T07:17:46.570Z,39.43
2019-02-28T07:20:19.588Z,40.00
2019-02-28T07:22:48.138Z,34.53
2019-02-28T07:25:16.718Z,44.37
2019-02-28T07:27:45.278Z,45.77
2019-02-28T07:30:18.419Z,43.40
2019-02-28T07:32:47.212Z,43.57
2019-02-28T07:35:15.804Z,43.07
2019-02-28T07:37:44.364Z,46.97
2019-02-28T07:40:17.355Z,45.07
2019-02-28T07:42:46.376Z,45.63
2019-02-28T07:45:15.857Z,41.73
2019-02-28T07:47:44.567Z,44.60
2019-02-28T07:50:14.894Z,46.70
2019-02-28T07:52:43.592Z,49.00
2019-02-28T07:55:20.166Z,43.27
2019-02-28T07:57:54.291Z,45.57
2019-02-28T08:00:20.441Z,43.40
2019-02-28T08:02:49.028Z,44.43
2019-02-28T08:05:17.759Z,43.90
2019-02-28T08:07:51.855Z,44.93
2019-02-28T08:10:28.666Z,43.93
2019-02-28T08:12:57.222Z,45.77
2019-02-28T08:15:27.016Z,42.07
2019-02-28T08:17:55.647Z,49.10
2019-02-28T08:20:24.301Z,43.33
2019-02-28T08:22:56.534Z,50.17
2019-02-28T08:25:23.234Z,48.73
2019-02-28T08:27:51.798Z,45.57
2019-02-28T08:30:31.092Z,43.10
2019-02-28T08:32:59.654Z,46.23
2019-02-28T08:35:33.933Z,46.20
2019-02-28T08:37:58.441Z,50.90
2019-02-28T08:40:27.968Z,50.67
2019-02-28T08:42:56.658Z,48.10
2019-02-28T08:45:25.170Z,44.07
2019-02-28T08:47:56.715Z,50.90
2019-02-28T08:50:24.921Z,48.23
2019-02-28T08:53:01.463Z,44.00
2019-02-28T08:55:30.116Z,46.80
2019-02-28T08:58:05.139Z,45.87
2019-02-28T09:00:32.570Z,46.37
2019-02-28T09:03:00.826Z,45.57
2019-02-28T09:05:30.255Z,46.57
2019-02-28T09:07:58.989Z,46.77
2019-02-28T09:10:27.712Z,50.93
2019-02-28T09:12:56.275Z,43.33
2019-02-28T09:15:30.188Z,42.77
2019-02-28T09:17:58.212Z,43.40
2019-02-28T09:20:25.350Z,48.40
2019-02-28T09:22:53.906Z,50.43
2019-02-28T09:25:26.988Z,38.60
2019-02-28T09:27:55.757Z,53.67
2019-02-28T09:30:41.826Z,40.23
2019-02-28T09:33:10.381Z,44.00
2019-02-28T09:35:39.036Z,41.50
2019-02-28T09:38:13.226Z,40.40
2019-02-28T09:40:37.841Z,44.53
2019-02-28T09:43:06.403Z,43.50
2019-02-28T09:45:35.357Z,45.97
2019-02-28T09:48:03.994Z,51.13
2019-02-28T09:50:33.341Z,45.10
2019-02-28T09:53:01.948Z,49.93
2019-02-28T09:55:34.074Z,50.63
2019-02-28T09:58:00.737Z,44.63
2019-02-28T10:00:30.246Z,46.10
2019-02-28T10:02:58.867Z,50.83
2019-02-28T10:05:27.466Z,46.47
2019-02-28T10:08:01.631Z,43.93
2019-02-28T10:10:28.095Z,49.40
2019-02-28T10:12:56.959Z,41.80
2019-02-28T10:15:26.577Z,39.60
2019-02-28T10:17:55.170Z,53.47
2019-02-28T10:20:31.543Z,52.60
2019-02-28T10:23:00.103Z,51.87
2019-02-28T10:25:28.664Z,46.40
2019-02-28T10:28:01.608Z,45.27
2019-02-28T10:30:32.085Z,42.83
2019-02-28T10:32:58.703Z,53.00
2019-02-28T10:35:27.266Z,44.73
2019-02-28T10:37:58.399Z,40.90
2019-02-28T10:40:28.276Z,49.30
2019-02-28T10:42:56.937Z,43.47
2019-02-28T10:45:26.208Z,49.47
2019-02-28T10:47:54.795Z,44.40
2019-02-28T10:50:26.000Z,45.20
2019-02-28T10:52:54.655Z,45.40
2019-02-28T10:55:23.390Z,48.80
2019-02-28T10:57:52.123Z,39.50
2019-02-28T11:00:32.933Z,45.83
2019-02-28T11:03:02.664Z,42.37
2019-02-28T11:05:33.173Z,39.43
2019-02-28T11:08:02.495Z,49.93
2019-02-28T11:10:35.648Z,44.40
2019-02-28T11:13:04.665Z,40.07
2019-02-28T11:15:33.287Z,45.37
2019-02-28T11:18:01.876Z,45.93
2019-02-28T11:20:30.583Z,43.77
2019-02-28T11:22:59.168Z,46.17
2019-02-28T11:25:28.155Z,46.23
2019-02-28T11:27:56.740Z,42.57
2019-02-28T11:30:27.445Z,46.53
2019-02-28T11:32:56.097Z,43.97
2019-02-28T11:35:25.211Z,44.23
2019-02-28T11:37:53.934Z,43.87
2019-02-28T11:40:24.922Z,42.50
2019-02-28T11:42:53.664Z,38.57
2019-02-28T11:45:27.899Z,43.33
2019-02-28T11:47:58.430Z,41.97
2019-02-28T11:50:26.990Z,40.37
2019-02-28T11:52:55.575Z,43.43
2019-02-28T11:55:24.206Z,42.33
2019-02-28T11:57:53.027Z,47.80
2019-02-28T12:00:27.365Z,44.97
2019-02-28T12:02:59.914Z,38.93
2019-02-28T12:05:26.538Z,38.37
2019-02-28T12:07:55.265Z,39.57
2019-02-28T12:10:26.995Z,40.83
2019-02-28T12:12:56.366Z,47.67
2019-02-28T12:15:29.799Z,42.07
2019-02-28T12:18:03.505Z,40.27
2019-02-28T12:20:28.603Z,49.53
2019-02-28T12:22:57.184Z,46.63
2019-02-28T12:25:26.009Z,42.00
2019-02-28T12:27:55.264Z,42.57
2019-02-28T12:30:26.664Z,44.23
2019-02-28T12:32:55.243Z,40.60
2019-02-28T12:35:23.806Z,41.57
2019-02-28T12:37:53.943Z,48.27
2019-02-28T12:40:25.871Z,42.47
2019-02-28T12:42:54.438Z,42.67
2019-02-28T12:45:34.699Z,41.93
2019-02-28T12:48:03.277Z,44.67
2019-02-28T12:50:31.915Z,47.50
2019-02-28T12:53:00.500Z,40.70
2019-02-28T12:55:29.132Z,40.93
2019-02-28T12:57:58.585Z,41.00
2019-02-28T13:00:30.354Z,41.37
2019-02-28T13:02:58.983Z,41.60
2019-02-28T13:05:27.511Z,43.47
2019-02-28T13:07:56.098Z,38.00
2019-02-28T13:10:28.016Z,45.83
2019-02-28T13:13:05.239Z,43.80
2019-02-28T13:15:25.514Z,36.80
2019-02-28T13:17:54.166Z,36.47
2019-02-28T13:20:32.201Z,44.23
2019-02-28T13:22:59.252Z,44.80
2019-02-28T13:25:28.945Z,44.63
2019-02-28T13:27:57.607Z,43.33
2019-02-28T13:30:27.402Z,41.07
2019-02-28T13:32:56.247Z,40.63
2019-02-28T13:35:27.390Z,40.03
2019-02-28T13:37:56.023Z,41.80
2019-02-28T13:40:24.535Z,34.70
2019-02-28T13:42:53.122Z,35.83
2019-02-28T13:45:23.735Z,39.90
2019-02-28T13:47:52.623Z,38.80
2019-02-28T13:50:27.134Z,33.27
2019-02-28T13:52:55.844Z,37.27
2019-02-28T13:55:24.470Z,42.90
2019-02-28T13:57:53.063Z,40.07
2019-02-28T14:00:29.830Z,38.47
2019-02-28T14:03:00.368Z,40.53
2019-02-28T14:05:28.924Z,42.40
2019-02-28T14:07:57.509Z,47.17
2019-02-28T14:10:29.550Z,44.00
2019-02-28T14:12:57.985Z,43.27
2019-02-28T14:15:41.402Z,37.87
2019-02-28T14:18:10.933Z,42.50
2019-02-28T14:20:40.130Z,36.33
2019-02-28T14:23:09.075Z,45.17
2019-02-28T14:25:39.784Z,40.07
2019-02-28T14:28:07.948Z,40.63
2019-02-28T14:30:36.502Z,46.90
2019-02-28T14:33:05.318Z,36.13
2019-02-28T14:35:35.171Z,41.70
2019-02-28T14:38:04.500Z,39.67
2019-02-28T14:40:33.058Z,39.13
2019-02-28T14:43:01.643Z,39.17
2019-02-28T14:45:39.045Z,35.07
2019-02-28T14:48:06.498Z,38.37
2019-02-28T14:50:35.063Z,33.90
2019-02-28T14:53:03.719Z,37.73
2019-02-28T14:55:32.611Z,40.63
2019-02-28T14:58:02.202Z,36.90
2019-02-28T15:00:32.380Z,48.20
2019-02-28T15:03:02.850Z,43.50
2019-02-28T15:05:35.182Z,51.23
2019-02-28T15:08:03.846Z,52.33
2019-02-28T15:10:34.273Z,50.40
2019-02-28T15:13:04.785Z,51.20
2019-02-28T15:15:33.138Z,50.37
2019-02-28T15:18:01.730Z,43.67
2019-02-28T15:20:32.777Z,42.73
2019-02-28T15:23:00.599Z,43.33
2019-02-28T15:25:30.303Z,49.03
2019-02-28T15:27:58.885Z,50.23
2019-02-28T15:30:35.422Z,49.60
2019-02-28T15:33:04.148Z,51.07
2019-02-28T15:35:32.783Z,47.73
2019-02-28T15:38:01.366Z,42.70
2019-02-28T15:40:35.559Z,47.97
2019-02-28T15:43:04.212Z,49.37
2019-02-28T15:45:36.138Z,48.90
2019-02-28T15:48:03.007Z,52.97
2019-02-28T15:50:31.647Z,46.37
2019-02-28T15:53:00.474Z,41.73
2019-02-28T15:55:29.430Z,44.20
2019-02-28T15:57:58.000Z,38.23
2019-02-28T16:00:28.728Z,38.77
2019-02-28T16:02:57.619Z,40.87
2019-02-28T16:05:26.299Z,39.07
2019-02-28T16:07:55.578Z,50.83
2019-02-28T16:10:32.957Z,48.87
2019-02-28T16:13:02.023Z,45.53
2019-02-28T16:15:30.678Z,42.47
2019-02-28T16:17:59.382Z,39.53
2019-02-28T16:20:28.467Z,47.17
2019-02-28T16:22:58.314Z,37.47
2019-02-28T16:25:32.139Z,36.37
2019-02-28T16:28:00.761Z,49.70
2019-02-28T16:30:32.152Z,44.80
2019-02-28T16:32:59.970Z,47.47
2019-02-28T16:35:29.111Z,37.67
2019-02-28T16:37:57.715Z,42.67
2019-02-28T16:40:32.526Z,46.43
2019-02-28T16:43:01.098Z,38.53
2019-02-28T16:45:31.951Z,38.10
2019-02-28T16:48:03.011Z,41.70
2019-02-28T16:50:31.715Z,46.07
2019-02-28T16:53:00.456Z,36.40
2019-02-28T16:55:30.917Z,37.93
2019-02-28T16:57:59.254Z,39.60
2019-02-28T17:00:28.079Z,38.77
2019-02-28T17:02:56.643Z,42.67
2019-02-28T17:05:28.015Z,35.43
2019-02-28T17:07:55.542Z,51.00
2019-02-28T17:10:40.228Z,39.60
2019-02-28T17:13:23.225Z,37.87
2019-02-28T17:16:01.822Z,32.10
2019-02-28T17:18:34.190Z,30.47
2019-02-28T17:21:02.838Z,43.90
2019-02-28T17:23:33.639Z,46.17
2019-02-28T17:26:01.739Z,39.60
2019-02-28T17:28:51.032Z,33.13
2019-02-28T17:31:33.515Z,35.70
2019-02-28T17:34:02.165Z,38.43
2019-02-28T17:36:30.802Z,43.43
2019-02-28T17:38:59.390Z,39.63
2019-02-28T17:41:27.955Z,35.03
2019-02-28T17:44:25.263Z,38.63
2019-02-28T17:47:00.588Z,43.03
2019-02-28T17:50:05.377Z,36.83
2019-02-28T17:52:55.287Z,46.33
2019-02-28T17:55:48.722Z,41.90
2019-02-28T17:58:38.193Z,38.20
2019-02-28T18:01:18.501Z,38.43
2019-02-28T18:04:20.899Z,35.10
2019-02-28T18:07:20.111Z,41.83
2019-02-28T18:09:57.319Z,35.73
2019-02-28T18:12:47.091Z,38.43
2019-02-28T18:15:30.522Z,39.83
2019-02-28T18:18:20.246Z,40.50
2019-02-28T18:21:00.714Z,42.60
2019-02-28T18:23:33.705Z,43.10
2019-02-28T18:26:08.210Z,38.03
2019-02-28T18:28:58.830Z,38.33
2019-02-28T18:31:27.539Z,48.47
2019-02-28T18:33:58.349Z,44.07
2019-02-28T18:36:29.278Z,44.00
2019-02-28T18:38:57.842Z,39.97
2019-02-28T18:41:26.431Z,34.63
2019-02-28T18:43:54.994Z,32.87
2019-02-28T18:46:23.577Z,36.00
2019-02-28T18:48:54.285Z,40.17
2019-02-28T18:51:22.366Z,33.67
2019-02-28T18:53:50.936Z,27.27
2019-02-28T18:56:19.518Z,37.83
2019-02-28T18:58:48.080Z,34.00
2019-02-28T19:01:16.727Z,29.30
2019-02-28T19:03:45.286Z,30.70
2019-02-28T19:06:13.870Z,33.23
2019-02-28T19:08:42.431Z,30.53
2019-02-28T19:11:11.093Z,36.00
2019-02-28T19:13:39.649Z,36.97
2019-02-28T19:16:08.226Z,32.40
2019-02-28T19:18:36.782Z,29.10
2019-02-28T19:21:05.425Z,27.97
2019-02-28T19:23:33.990Z,29.10
2019-02-28T19:26:02.571Z,27.00
2019-02-28T19:28:31.126Z,24.17
2019-02-28T19:30:59.951Z,22.27
2019-02-28T19:33:28.512Z,22.70
2019-02-28T19:35:57.086Z,32.00
2019-02-28T19:38:25.642Z,25.53
2019-02-28T19:40:54.227Z,23.63
2019-02-28T19:43:22.791Z,21.63
2019-02-28T19:45:54.720Z,28.57
2019-02-28T19:48:23.279Z,27.20
2019-02-28T19:50:51.863Z,27.90
2019-02-28T19:53:20.427Z,25.10
2019-02-28T19:55:49.006Z,23.43
2019-02-28T19:58:17.567Z,25.50
2019-02-28T20:00:46.150Z,22.90
2019-02-28T20:03:14.715Z,22.60
2019-02-28T20:05:43.363Z,26.27
2019-02-28T20:08:11.919Z,24.70
2019-02-28T20:10:40.566Z,33.87
2019-02-28T20:13:09.189Z,29.97
2019-02-28T20:15:41.783Z,24.83
2019-02-28T20:18:11.202Z,18.93
2019-02-28T20:20:39.826Z,27.70
2019-02-28T20:23:08.413Z,29.60
2019-02-28T20:25:37.107Z,33.27
2019-02-28T20:28:05.753Z,34.63
2019-02-28T20:30:34.381Z,29.77
2019-02-28T20:33:02.963Z,30.73
2019-02-28T20:35:31.594Z,32.03
2019-02-28T20:38:00.172Z,33.07
2019-02-28T20:40:30.768Z,33.43
2019-02-28T20:42:59.347Z,45.20
2019-02-28T20:45:27.910Z,32.10
2019-02-28T20:47:57.589Z,24.73
2019-02-28T20:50:32.166Z,22.90
2019-02-28T20:53:00.814Z,26.07
2019-02-28T20:55:29.375Z,21.37
2019-02-28T20:57:57.957Z,24.73
2019-02-28T21:00:28.089Z,21.77
2019-02-28T21:02:56.669Z,35.33
2019-02-28T21:05:25.231Z,28.33
2019-02-28T21:07:53.812Z,38.73
2019-02-28T21:10:22.504Z,26.13
2019-02-28T21:12:51.083Z,28.00
2019-02-28T21:15:19.636Z,22.23
2019-02-28T21:17:48.214Z,30.63
2019-02-28T21:20:17.350Z,36.33
2019-02-28T21:22:45.917Z,33.07
2019-02-28T21:25:17.550Z,30.90
2019-02-28T21:27:46.130Z,31.47
2019-02-28T21:30:25.212Z,34.60
2019-02-28T21:32:53.799Z,27.37
2019-02-28T21:35:23.894Z,26.23
2019-02-28T21:37:52.469Z,20.13
2019-02-28T21:42:48.271Z,32.80
2019-02-28T21:45:19.230Z,23.67
2019-02-28T21:47:47.820Z,21.33
2019-02-28T21:50:17.734Z,38.87
2019-02-28T21:52:46.575Z,45.20
2019-02-28T21:55:16.290Z,44.03
2019-02-28T21:57:44.999Z,46.70
2019-02-28T22:00:24.996Z,31.87
2019-02-28T22:02:53.914Z,34.00
2019-02-28T22:05:22.539Z,43.10
2019-02-28T22:07:51.258Z,67.90
2019-02-28T22:10:19.824Z,55.37
2019-02-28T22:12:48.468Z,48.23
2019-02-28T22:15:19.436Z,44.27
2019-02-28T22:17:48.021Z,42.07
2019-02-28T22:20:16.572Z,46.90
2019-02-28T22:22:45.154Z,43.37
2019-02-28T22:25:15.056Z,70.17
2019-02-28T22:27:43.626Z,49.80
2019-02-28T22:30:22.092Z,40.17
2019-02-28T22:32:52.310Z,36.07
2019-02-28T22:35:22.514Z,31.50
2019-02-28T22:37:51.096Z,35.80
2019-02-28T22:40:19.666Z,36.67
2019-02-28T22:42:48.238Z,34.13
2019-02-28T22:45:16.796Z,35.03
2019-02-28T22:47:45.369Z,51.60
2019-02-28T22:50:14.071Z,48.93
2019-02-28T22:52:42.653Z,35.87
2019-02-28T22:55:11.273Z,58.10
2019-02-28T22:57:39.873Z,55.60
2019-02-28T23:00:34.094Z,45.37
2019-02-28T23:03:02.754Z,34.83
2019-02-28T23:05:31.303Z,33.10
2019-02-28T23:07:59.882Z,31.43
2019-02-28T23:10:28.435Z,28.20
2019-02-28T23:12:57.022Z,25.73
2019-02-28T23:15:25.580Z,20.73
2019-02-28T23:17:54.162Z,22.37
2019-02-28T23:20:22.719Z,19.57
2019-02-28T23:22:51.300Z,19.67
2019-02-28T23:25:19.860Z,21.30
2019-02-28T23:27:48.443Z,19.17
2019-02-28T23:30:37.626Z,17.67
2019-02-28T23:33:06.270Z,19.90
2019-02-28T23:35:35.365Z,21.80
2019-02-28T23:38:04.118Z,21.93
2019-02-28T23:40:32.673Z,19.80
2019-02-28T23:43:01.257Z,19.77
2019-02-28T23:45:29.822Z,23.47
2019-02-28T23:47:58.402Z,22.17
2019-02-28T23:50:26.966Z,41.53
2019-02-28T23:52:55.551Z,38.10
2019-02-28T23:55:24.111Z,29.27
2019-02-28T23:57:52.691Z,26.13
